createdAt,value
2018-02-23T00:00:10.789Z,0.00
2018-02-23T00:01:10.704Z,0.00
2018-02-23T00:02:10.685Z,0.00
2018-02-23T00:03:10.609Z,0.00
2018-02-23T00:04:10.567Z,0.00
2018-02-23T00:05:10.514Z,0.00
2018-02-23T00:06:10.479Z,0.00
2018-02-23T00:07:10.440Z,0.00
2018-02-23T00:08:10.377Z,0.00
2018-02-23T00:09:10.336Z,0.00
2018-02-23T00:10:10.284Z,0.00
2018-02-23T00:11:10.231Z,0.00
2018-02-23T00:12:10.207Z,0.00
2018-02-23T00:13:10.132Z,0.00
2018-02-23T00:14:10.095Z,0.00
2018-02-23T00:15:10.051Z,0.00
2018-02-23T00:16:09.997Z,0.00
2018-02-23T00:17:09.981Z,0.00
2018-02-23T00:18:09.893Z,0.00
2018-02-23T00:19:09.860Z,0.00
2018-02-23T00:20:09.800Z,0.00
2018-02-23T00:21:09.762Z,0.00
2018-02-23T00:22:09.713Z,0.00
2018-02-23T00:23:09.689Z,0.00
2018-02-23T00:24:09.611Z,0.00
2018-02-23T00:25:09.566Z,0.00
2018-02-23T00:26:09.541Z,0.00
2018-02-23T00:27:09.474Z,0.00
2018-02-23T00:28:09.475Z,0.00
2018-02-23T00:29:09.380Z,0.00
2018-02-23T00:30:09.324Z,0.00
2018-02-23T00:31:09.281Z,0.00
2018-02-23T00:32:09.228Z,0.00
2018-02-23T00:33:09.210Z,0.00
2018-02-23T00:34:09.137Z,0.00
2018-02-23T00:35:09.094Z,0.00
2018-02-23T00:36:09.041Z,0.00
2018-02-23T00:37:08.990Z,0.00
2018-02-23T00:38:08.982Z,0.00
2018-02-23T00:39:08.903Z,0.00
2018-02-23T00:40:08.856Z,0.00
2018-02-23T00:41:08.808Z,0.00
2018-02-23T00:42:08.750Z,0.00
2018-02-23T00:43:08.710Z,0.00
2018-02-23T00:44:08.689Z,0.00
2018-02-23T00:45:08.615Z,0.00
2018-02-23T00:46:08.572Z,0.00
2018-02-23T00:47:08.520Z,0.00
2018-02-23T00:48:08.470Z,0.00
2018-02-23T00:49:08.443Z,0.00
2018-02-23T00:50:08.376Z,0.00
2018-02-23T00:51:08.321Z,0.00
2018-02-23T00:52:08.273Z,0.00
2018-02-23T00:53:08.232Z,0.00
2018-02-23T00:54:08.212Z,0.00
2018-02-23T00:55:08.132Z,0.00
2018-02-23T00:56:08.085Z,0.00
2018-02-23T00:57:08.038Z,0.00
2018-02-23T00:58:07.988Z,0.00
2018-02-23T00:59:07.969Z,0.00
2018-02-23T01:00:07.890Z,0.00
2018-02-23T01:01:07.849Z,0.00
2018-02-23T01:02:07.792Z,0.00
2018-02-23T01:03:07.754Z,0.00
2018-02-23T01:04:07.720Z,0.00
2018-02-23T01:05:07.658Z,0.00
2018-02-23T01:06:07.612Z,0.00
2018-02-23T01:07:07.560Z,0.00
2018-02-23T01:08:07.518Z,0.00
2018-02-23T01:09:07.499Z,0.00
2018-02-23T01:10:07.416Z,0.00
2018-02-23T01:11:07.367Z,0.00
2018-02-23T01:12:07.326Z,0.00
2018-02-23T01:13:07.267Z,0.00
2018-02-23T01:14:07.221Z,0.00
2018-02-23T01:15:07.199Z,0.00
2018-02-23T01:16:07.187Z,0.00
2018-02-23T01:17:07.083Z,0.00
2018-02-23T01:18:07.036Z,0.00
2018-02-23T01:19:06.987Z,0.00
2018-02-23T01:20:06.957Z,0.00
2018-02-23T01:21:06.886Z,0.00
2018-02-23T01:22:06.838Z,0.00
2018-02-23T01:23:06.796Z,0.00
2018-02-23T01:24:06.749Z,0.00
2018-02-23T01:25:06.722Z,0.00
2018-02-23T01:26:06.645Z,0.00
2018-02-23T01:27:06.601Z,0.00
2018-02-23T01:28:06.556Z,0.00
2018-02-23T01:29:06.500Z,0.00
2018-02-23T01:30:06.467Z,0.00
2018-02-23T01:31:06.424Z,0.00
2018-02-23T01:32:06.361Z,0.00
2018-02-23T01:33:06.316Z,0.00
2018-02-23T01:34:06.269Z,0.00
2018-02-23T01:35:06.210Z,0.00
2018-02-23T01:36:06.188Z,0.00
2018-02-23T01:37:06.123Z,0.00
2018-02-23T01:38:06.074Z,0.00
2018-02-23T01:39:06.034Z,0.00
2018-02-23T01:40:05.970Z,0.00
2018-02-23T01:41:05.944Z,0.00
2018-02-23T01:42:05.874Z,0.00
2018-02-23T01:43:05.832Z,0.00
2018-02-23T01:44:05.797Z,0.00
2018-02-23T01:45:05.739Z,0.00
2018-02-23T01:46:05.712Z,0.00
2018-02-23T01:47:05.642Z,0.00
2018-02-23T01:48:05.601Z,0.00
2018-02-23T01:49:05.544Z,0.00
2018-02-23T01:50:05.490Z,0.00
2018-02-23T01:51:05.480Z,0.00
2018-02-23T01:52:05.391Z,0.00
2018-02-23T01:53:05.343Z,0.00
2018-02-23T01:54:05.301Z,0.00
2018-02-23T01:55:05.250Z,0.00
2018-02-23T01:56:05.201Z,0.00
2018-02-23T01:57:05.185Z,0.00
2018-02-23T01:58:05.113Z,0.00
2018-02-23T01:59:05.062Z,0.00
2018-02-23T02:00:05.008Z,0.00
2018-02-23T02:01:04.968Z,0.00
2018-02-23T02:02:04.938Z,0.00
2018-02-23T02:03:04.871Z,0.00
2018-02-23T02:04:04.818Z,0.00
2018-02-23T02:05:04.773Z,0.00
2018-02-23T02:06:04.724Z,0.00
2018-02-23T02:07:04.705Z,0.00
2018-02-23T02:08:04.623Z,0.00
2018-02-23T02:09:04.581Z,0.00
2018-02-23T02:10:04.535Z,0.00
2018-02-23T02:11:04.487Z,0.00
2018-02-23T02:12:04.462Z,0.00
2018-02-23T02:13:04.390Z,0.00
2018-02-23T02:14:04.335Z,0.00
2018-02-23T02:15:04.290Z,0.00
2018-02-23T02:16:04.240Z,0.00
2018-02-23T02:17:04.217Z,0.00
2018-02-23T02:18:04.153Z,0.00
2018-02-23T02:19:04.095Z,0.00
2018-02-23T02:20:04.053Z,0.00
2018-02-23T02:21:04.002Z,0.00
2018-02-23T02:22:03.959Z,0.00
2018-02-23T02:23:03.926Z,0.00
2018-02-23T02:24:03.855Z,0.00
2018-02-23T02:25:03.811Z,0.00
2018-02-23T02:26:05.479Z,0.00
2018-02-23T02:27:03.709Z,0.00
2018-02-23T02:28:03.688Z,0.00
2018-02-23T02:29:03.611Z,0.00
2018-02-23T02:30:03.571Z,0.00
2018-02-23T02:31:03.527Z,0.00
2018-02-23T02:32:03.476Z,0.00
2018-02-23T02:33:03.458Z,0.00
2018-02-23T02:34:03.374Z,0.00
2018-02-23T02:35:03.324Z,0.00
2018-02-23T02:36:03.287Z,0.00
2018-02-23T02:37:03.226Z,0.00
2018-02-23T02:38:03.210Z,0.00
2018-02-23T02:39:03.146Z,0.00
2018-02-23T02:40:03.092Z,0.00
2018-02-23T02:41:03.057Z,0.00
2018-02-23T02:42:03.016Z,0.00
2018-02-23T02:43:03.005Z,0.00
2018-02-23T02:44:02.899Z,0.00
2018-02-23T02:45:02.849Z,0.00
2018-02-23T02:46:02.798Z,0.00
2018-02-23T02:47:02.749Z,0.00
2018-02-23T02:48:02.730Z,0.00
2018-02-23T02:49:02.649Z,0.00
2018-02-23T02:50:02.615Z,0.00
2018-02-23T02:51:02.561Z,0.00
2018-02-23T02:52:02.525Z,0.00
2018-02-23T02:53:02.464Z,0.00
2018-02-23T02:54:02.434Z,0.00
2018-02-23T02:55:02.362Z,0.00
2018-02-23T02:56:02.312Z,0.00
2018-02-23T02:57:02.266Z,0.00
2018-02-23T02:58:02.247Z,0.00
2018-02-23T02:59:02.174Z,0.00
2018-02-23T03:00:02.132Z,0.00
2018-02-23T03:01:02.078Z,0.00
2018-02-23T03:02:02.031Z,0.00
2018-02-23T03:03:01.989Z,0.00
2018-02-23T03:04:01.960Z,0.00
2018-02-23T03:05:01.889Z,0.00
2018-02-23T03:06:01.837Z,0.00
2018-02-23T03:07:01.787Z,0.00
2018-02-23T03:08:01.744Z,0.00
2018-02-23T03:09:01.722Z,0.00
2018-02-23T03:10:01.639Z,0.00
2018-02-23T03:11:01.592Z,0.00
2018-02-23T03:12:01.551Z,0.00
2018-02-23T03:13:01.501Z,0.00
2018-02-23T03:14:01.476Z,0.00
2018-02-23T03:15:01.402Z,0.00
2018-02-23T03:16:01.356Z,0.00
2018-02-23T03:17:01.302Z,0.00
2018-02-23T03:18:01.268Z,0.00
2018-02-23T03:19:01.314Z,0.00
2018-02-23T03:20:01.164Z,0.00
2018-02-23T03:21:01.120Z,0.00
2018-02-23T03:22:01.071Z,0.00
2018-02-23T03:23:01.020Z,0.00
2018-02-23T03:24:00.999Z,0.00
2018-02-23T03:25:00.925Z,0.00
2018-02-23T03:26:00.871Z,0.00
2018-02-23T03:27:00.824Z,0.00
2018-02-23T03:28:00.777Z,0.00
2018-02-23T03:29:00.759Z,0.00
2018-02-23T03:30:00.690Z,0.00
2018-02-23T03:31:00.637Z,0.00
2018-02-23T03:32:00.590Z,0.00
2018-02-23T03:33:00.537Z,0.00
2018-02-23T03:34:00.495Z,0.00
2018-02-23T03:35:00.461Z,0.00
2018-02-23T03:36:00.400Z,0.00
2018-02-23T03:37:00.352Z,0.00
2018-02-23T03:38:00.295Z,0.00
2018-02-23T03:39:00.260Z,0.00
2018-02-23T03:40:00.229Z,0.00
2018-02-23T03:41:00.152Z,0.00
2018-02-23T03:42:00.102Z,0.00
2018-02-23T03:43:00.064Z,0.00
2018-02-23T03:44:00.021Z,0.00
2018-02-23T03:44:59.983Z,0.00
2018-02-23T03:45:59.910Z,0.00
2018-02-23T03:46:59.864Z,0.00
2018-02-23T03:47:59.824Z,0.00
2018-02-23T03:48:59.780Z,0.00
2018-02-23T03:49:59.757Z,0.00
2018-02-23T03:50:59.683Z,0.00
2018-02-23T03:51:59.623Z,0.00
2018-02-23T03:52:59.569Z,0.00
2018-02-23T03:53:59.537Z,0.00
2018-02-23T03:54:59.479Z,0.00
2018-02-23T03:55:59.457Z,0.00
2018-02-23T03:56:59.385Z,0.00
2018-02-23T03:57:59.345Z,0.00
2018-02-23T03:58:59.286Z,0.00
2018-02-23T03:59:59.249Z,0.00
2018-02-23T04:00:59.222Z,0.00
2018-02-23T04:01:59.151Z,0.00
2018-02-23T04:02:59.108Z,0.00
2018-02-23T04:03:59.055Z,0.00
2018-02-23T04:04:59.005Z,0.00
2018-02-23T04:05:58.981Z,0.00
2018-02-23T04:06:58.901Z,0.00
2018-02-23T04:07:58.857Z,0.00
2018-02-23T04:08:58.811Z,0.00
2018-02-23T04:09:58.763Z,0.00
2018-02-23T04:10:58.739Z,0.00
2018-02-23T04:11:58.671Z,0.00
2018-02-23T04:12:58.616Z,0.00
2018-02-23T04:13:58.572Z,0.00
2018-02-23T04:14:58.525Z,0.00
2018-02-23T04:15:58.505Z,0.00
2018-02-23T04:16:58.432Z,0.00
2018-02-23T04:17:58.380Z,0.00
2018-02-23T04:18:58.331Z,0.00
2018-02-23T04:19:58.282Z,0.00
2018-02-23T04:20:58.257Z,0.00
2018-02-23T04:21:58.182Z,0.00
2018-02-23T04:22:58.131Z,0.00
2018-02-23T04:23:58.092Z,0.00
2018-02-23T04:24:58.044Z,0.00
2018-02-23T04:25:57.990Z,0.00
2018-02-23T04:26:57.971Z,0.00
2018-02-23T04:27:57.897Z,0.00
2018-02-23T04:28:57.848Z,0.00
2018-02-23T04:29:57.793Z,0.00
2018-02-23T04:30:57.755Z,0.00
2018-02-23T04:31:57.724Z,0.00
2018-02-23T04:32:57.656Z,0.00
2018-02-23T04:33:57.612Z,0.00
2018-02-23T04:34:57.563Z,0.00
2018-02-23T04:35:57.512Z,0.00
2018-02-23T04:36:57.494Z,0.00
2018-02-23T04:37:57.407Z,0.00
2018-02-23T04:38:57.372Z,0.00
2018-02-23T04:39:57.311Z,0.00
2018-02-23T04:40:57.264Z,0.00
2018-02-23T04:41:57.250Z,0.00
2018-02-23T04:42:57.172Z,0.00
2018-02-23T04:43:57.125Z,0.00
2018-02-23T04:44:57.072Z,0.00
2018-02-23T04:45:57.029Z,0.00
2018-02-23T04:46:56.976Z,0.00
2018-02-23T04:47:56.951Z,0.00
2018-02-23T04:48:56.885Z,0.00
2018-02-23T04:49:56.835Z,0.00
2018-02-23T04:50:56.784Z,0.00
2018-02-23T04:51:56.735Z,0.00
2018-02-23T04:52:56.726Z,0.00
2018-02-23T04:53:56.641Z,0.00
2018-02-23T04:54:56.580Z,0.00
2018-02-23T04:55:56.540Z,0.00
2018-02-23T04:56:56.487Z,0.00
2018-02-23T04:57:56.463Z,0.00
2018-02-23T04:58:56.432Z,0.00
2018-02-23T04:59:56.353Z,0.00
2018-02-23T05:00:56.301Z,0.00
2018-02-23T05:01:56.247Z,0.00
2018-02-23T05:02:56.226Z,0.00
2018-02-23T05:03:56.145Z,0.00
2018-02-23T05:04:56.098Z,0.00
2018-02-23T05:05:56.048Z,0.00
2018-02-23T05:06:56.009Z,0.00
2018-02-23T05:07:55.978Z,0.00
2018-02-23T05:08:55.910Z,0.00
2018-02-23T05:09:55.858Z,0.00
2018-02-23T05:10:55.818Z,0.00
2018-02-23T05:11:55.760Z,0.00
2018-02-23T05:12:55.719Z,0.00
2018-02-23T05:13:55.680Z,0.00
2018-02-23T05:14:55.620Z,0.00
2018-02-23T05:15:55.571Z,0.00
2018-02-23T05:16:55.511Z,0.00
2018-02-23T05:17:55.466Z,0.00
2018-02-23T05:18:55.449Z,0.00
2018-02-23T05:19:55.375Z,0.00
2018-02-23T05:20:55.317Z,0.00
2018-02-23T05:21:55.281Z,0.00
2018-02-23T05:22:55.229Z,0.00
2018-02-23T05:23:55.196Z,0.00
2018-02-23T05:24:55.121Z,0.00
2018-02-23T05:25:55.076Z,0.00
2018-02-23T05:26:55.027Z,0.00
2018-02-23T05:27:54.983Z,0.00
2018-02-23T05:28:54.964Z,0.00
2018-02-23T05:29:54.889Z,0.00
2018-02-23T05:30:54.834Z,0.00
2018-02-23T05:31:54.790Z,0.00
2018-02-23T05:32:54.741Z,0.00
2018-02-23T05:33:54.691Z,0.00
2018-02-23T05:34:54.671Z,0.00
2018-02-23T05:35:54.589Z,0.00
2018-02-23T05:36:54.540Z,0.00
2018-02-23T05:37:54.489Z,0.00
2018-02-23T05:38:54.454Z,0.00
2018-02-23T05:39:54.431Z,0.00
2018-02-23T05:40:54.339Z,0.00
2018-02-23T05:41:54.301Z,0.00
2018-02-23T05:42:54.251Z,0.00
2018-02-23T05:43:54.205Z,0.00
2018-02-23T05:44:54.180Z,0.00
2018-02-23T05:45:54.104Z,0.00
2018-02-23T05:46:54.053Z,0.00
2018-02-23T05:47:54.007Z,0.00
2018-02-23T05:48:53.952Z,0.00
2018-02-23T05:49:53.933Z,0.00
2018-02-23T05:50:53.858Z,0.00
2018-02-23T05:51:53.817Z,0.00
2018-02-23T05:52:53.763Z,0.00
2018-02-23T05:53:53.721Z,0.00
2018-02-23T05:54:53.698Z,0.00
2018-02-23T05:55:53.618Z,0.00
2018-02-23T05:56:53.569Z,0.00
2018-02-23T05:57:53.518Z,0.00
2018-02-23T05:58:53.464Z,0.00
2018-02-23T05:59:53.422Z,0.00
2018-02-23T06:00:53.390Z,0.00
2018-02-23T06:01:53.321Z,0.00
2018-02-23T06:02:53.279Z,0.00
2018-02-23T06:03:53.231Z,0.00
2018-02-23T06:04:53.191Z,0.00
2018-02-23T06:05:53.154Z,0.00
2018-02-23T06:06:53.110Z,0.00
2018-02-23T06:07:53.025Z,0.00
2018-02-23T06:08:52.981Z,0.00
2018-02-23T06:09:52.937Z,0.00
2018-02-23T06:10:52.910Z,0.00
2018-02-23T06:11:52.834Z,0.00
2018-02-23T06:12:52.794Z,0.00
2018-02-23T06:13:52.745Z,0.00
2018-02-23T06:14:52.687Z,0.00
2018-02-23T06:15:52.672Z,0.00
2018-02-23T06:16:52.599Z,0.00
2018-02-23T06:17:52.551Z,0.00
2018-02-23T06:18:52.502Z,5.63
2018-02-23T06:19:52.447Z,5.63
2018-02-23T06:20:52.396Z,5.63
2018-02-23T06:21:52.375Z,5.63
2018-02-23T06:22:52.299Z,5.63
2018-02-23T06:23:52.259Z,5.63
2018-02-23T06:24:52.206Z,11.25
2018-02-23T06:25:52.179Z,11.25
2018-02-23T06:26:52.129Z,11.25
2018-02-23T06:27:52.061Z,11.25
2018-02-23T06:28:53.982Z,11.25
2018-02-23T06:29:51.967Z,16.88
2018-02-23T06:30:51.913Z,16.88
2018-02-23T06:31:51.892Z,16.88
2018-02-23T06:32:51.817Z,22.50
2018-02-23T06:33:51.766Z,22.50
2018-02-23T06:34:51.718Z,22.50
2018-02-23T06:35:51.680Z,28.13
2018-02-23T06:36:51.653Z,28.13
2018-02-23T06:37:51.579Z,33.75
2018-02-23T06:38:51.532Z,33.75
2018-02-23T06:39:51.482Z,33.75
2018-02-23T06:40:51.426Z,39.38
2018-02-23T06:41:51.404Z,39.38
2018-02-23T06:42:51.338Z,45.00
2018-02-23T06:43:51.293Z,45.00
2018-02-23T06:44:51.233Z,50.63
2018-02-23T06:45:51.183Z,50.63
2018-02-23T06:46:51.144Z,56.25
2018-02-23T06:47:51.117Z,56.25
2018-02-23T06:48:51.044Z,61.88
2018-02-23T06:49:50.999Z,61.88
2018-02-23T06:50:50.943Z,67.50
2018-02-23T06:51:50.901Z,67.50
2018-02-23T06:52:50.888Z,73.13
2018-02-23T06:53:50.814Z,73.13
2018-02-23T06:54:50.754Z,78.75
2018-02-23T06:55:50.705Z,84.38
2018-02-23T06:56:50.686Z,84.38
2018-02-23T06:57:50.649Z,90.00
2018-02-23T06:58:50.572Z,90.00
2018-02-23T06:59:50.513Z,95.63
2018-02-23T07:00:50.583Z,95.63
2018-02-23T07:01:50.445Z,106.88
2018-02-23T07:02:50.433Z,118.13
2018-02-23T07:03:50.332Z,140.63
2018-02-23T07:04:50.289Z,151.88
2018-02-23T07:05:50.268Z,180.00
2018-02-23T07:06:50.180Z,196.88
2018-02-23T07:07:50.137Z,213.75
2018-02-23T07:08:50.108Z,225.00
2018-02-23T07:09:50.049Z,230.63
2018-02-23T07:10:50.043Z,236.25
2018-02-23T07:11:49.959Z,241.88
2018-02-23T07:12:49.897Z,247.50
2018-02-23T07:13:49.883Z,253.13
2018-02-23T07:14:49.815Z,258.75
2018-02-23T07:15:49.766Z,270.00
2018-02-23T07:16:49.724Z,275.63
2018-02-23T07:17:49.671Z,281.25
2018-02-23T07:18:49.653Z,286.88
2018-02-23T07:19:49.576Z,292.50
2018-02-23T07:20:49.539Z,303.75
2018-02-23T07:21:49.499Z,309.38
2018-02-23T07:22:49.448Z,315.00
2018-02-23T07:23:49.421Z,326.25
2018-02-23T07:24:49.367Z,331.88
2018-02-23T07:25:49.319Z,337.50
2018-02-23T07:26:49.273Z,343.13
2018-02-23T07:27:49.226Z,348.75
2018-02-23T07:28:49.216Z,354.38
2018-02-23T07:29:49.137Z,360.00
2018-02-23T07:30:49.106Z,365.63
2018-02-23T07:31:49.112Z,371.25
2018-02-23T07:32:49.021Z,382.50
2018-02-23T07:33:48.977Z,388.13
2018-02-23T07:34:48.960Z,393.75
2018-02-23T07:35:48.884Z,399.38
2018-02-23T07:36:48.846Z,405.00
2018-02-23T07:37:48.800Z,410.63
2018-02-23T07:38:48.766Z,416.25
2018-02-23T07:39:48.740Z,427.50
2018-02-23T07:40:48.681Z,433.13
2018-02-23T07:41:48.639Z,444.38
2018-02-23T07:42:48.603Z,444.38
2018-02-23T07:43:48.560Z,461.25
2018-02-23T07:44:48.540Z,466.88
2018-02-23T07:45:48.480Z,472.50
2018-02-23T07:46:48.434Z,478.13
2018-02-23T07:47:48.393Z,489.38
2018-02-23T07:48:48.353Z,500.63
2018-02-23T07:49:48.334Z,483.75
2018-02-23T07:50:48.266Z,489.38
2018-02-23T07:51:48.225Z,495.00
2018-02-23T07:52:48.185Z,495.00
2018-02-23T07:53:48.151Z,506.25
2018-02-23T07:54:48.176Z,511.88
2018-02-23T07:55:48.062Z,511.88
2018-02-23T07:56:48.034Z,523.13
2018-02-23T07:57:47.984Z,528.75
2018-02-23T07:58:47.945Z,528.75
2018-02-23T07:59:47.904Z,534.38
2018-02-23T08:00:47.890Z,545.63
2018-02-23T08:01:47.820Z,545.63
2018-02-23T08:02:47.790Z,556.88
2018-02-23T08:03:47.743Z,568.13
2018-02-23T08:04:47.709Z,585.00
2018-02-23T08:05:47.688Z,590.63
2018-02-23T08:06:47.632Z,596.25
2018-02-23T08:07:47.590Z,607.50
2018-02-23T08:08:47.553Z,618.75
2018-02-23T08:09:47.511Z,630.00
2018-02-23T08:10:47.498Z,641.25
2018-02-23T08:11:47.435Z,652.50
2018-02-23T08:12:47.396Z,663.75
2018-02-23T08:13:47.346Z,703.13
2018-02-23T08:14:47.316Z,731.25
2018-02-23T08:15:47.301Z,776.25
2018-02-23T08:16:47.231Z,871.88
2018-02-23T08:17:47.199Z,1012.50
2018-02-23T08:18:47.167Z,1158.75
2018-02-23T08:19:47.112Z,1215.00
2018-02-23T08:20:47.081Z,1220.63
2018-02-23T08:21:47.055Z,1243.13
2018-02-23T08:22:46.999Z,1254.38
2018-02-23T08:23:46.967Z,1271.25
2018-02-23T08:24:46.924Z,1271.25
2018-02-23T08:25:46.878Z,1316.25
2018-02-23T08:26:46.861Z,1310.63
2018-02-23T08:27:46.806Z,1344.38
2018-02-23T08:28:46.771Z,1485.00
2018-02-23T08:29:46.731Z,1631.25
2018-02-23T08:30:46.691Z,1771.88
2018-02-23T08:31:46.668Z,1923.75
2018-02-23T08:32:46.619Z,2075.63
2018-02-23T08:33:46.588Z,2250.00
2018-02-23T08:34:46.542Z,2491.88
2018-02-23T08:35:46.503Z,2868.75
2018-02-23T08:36:46.479Z,3189.38
2018-02-23T08:37:46.415Z,3240.00
2018-02-23T08:38:46.385Z,3088.13
2018-02-23T08:39:46.338Z,2998.13
2018-02-23T08:40:46.302Z,2874.38
2018-02-23T08:41:46.294Z,2711.25
2018-02-23T08:42:46.225Z,2638.13
2018-02-23T08:43:46.189Z,2548.13
2018-02-23T08:44:46.149Z,2458.13
2018-02-23T08:45:46.101Z,2238.75
2018-02-23T08:46:46.068Z,2092.50
2018-02-23T08:47:46.044Z,1991.25
2018-02-23T08:48:45.995Z,1940.63
2018-02-23T08:49:45.950Z,1833.75
2018-02-23T08:50:45.904Z,1749.38
2018-02-23T08:51:45.872Z,1620.00
2018-02-23T08:52:45.863Z,1636.88
2018-02-23T08:53:45.802Z,1636.88
2018-02-23T08:54:45.760Z,1642.50
2018-02-23T08:55:45.725Z,1642.50
2018-02-23T08:56:45.671Z,1625.63
2018-02-23T08:57:45.673Z,1569.38
2018-02-23T08:58:45.597Z,1591.88
2018-02-23T08:59:45.559Z,1603.13
2018-02-23T09:00:45.542Z,1563.75
2018-02-23T09:01:45.482Z,1535.63
2018-02-23T09:02:45.470Z,1501.88
2018-02-23T09:03:45.402Z,1485.00
2018-02-23T09:04:45.361Z,1485.00
2018-02-23T09:05:45.318Z,1451.25
2018-02-23T09:06:45.279Z,1366.88
2018-02-23T09:07:45.242Z,1316.25
2018-02-23T09:08:45.232Z,1327.50
2018-02-23T09:09:45.178Z,1440.00
2018-02-23T09:10:45.132Z,1440.00
2018-02-23T09:11:45.086Z,1451.25
2018-02-23T09:12:45.053Z,1411.88
2018-02-23T09:13:45.036Z,1378.13
2018-02-23T09:14:45.017Z,1366.88
2018-02-23T09:15:44.930Z,1344.38
2018-02-23T09:16:44.897Z,1378.13
2018-02-23T09:17:44.855Z,1423.13
2018-02-23T09:18:44.881Z,1411.88
2018-02-23T09:19:44.794Z,1400.63
2018-02-23T09:20:44.753Z,1428.75
2018-02-23T09:21:44.705Z,1445.63
2018-02-23T09:22:44.676Z,1445.63
2018-02-23T09:23:44.658Z,1440.00
2018-02-23T09:24:44.589Z,1451.25
2018-02-23T09:25:44.552Z,1445.63
2018-02-23T09:26:44.522Z,1468.13
2018-02-23T09:27:44.483Z,1479.38
2018-02-23T09:28:44.465Z,1496.25
2018-02-23T09:29:44.411Z,1496.25
2018-02-23T09:30:44.364Z,1518.75
2018-02-23T09:31:44.332Z,1546.88
2018-02-23T09:32:44.290Z,1524.38
2018-02-23T09:33:44.280Z,1513.13
2018-02-23T09:34:44.235Z,1513.13
2018-02-23T09:35:44.186Z,1541.25
2018-02-23T09:36:44.144Z,1563.75
2018-02-23T09:37:44.140Z,1535.63
2018-02-23T09:38:44.100Z,1524.38
2018-02-23T09:39:44.034Z,1451.25
2018-02-23T09:40:43.993Z,1383.75
2018-02-23T09:41:43.964Z,1366.88
2018-02-23T09:42:43.926Z,1366.88
2018-02-23T09:43:43.912Z,1310.63
2018-02-23T09:44:43.846Z,1276.88
2018-02-23T09:45:43.813Z,1260.00
2018-02-23T09:46:43.783Z,1293.75
2018-02-23T09:47:43.739Z,1338.75
2018-02-23T09:48:43.731Z,1372.50
2018-02-23T09:49:43.664Z,1395.00
2018-02-23T09:50:43.627Z,1400.63
2018-02-23T09:51:43.595Z,1451.25
2018-02-23T09:52:43.549Z,1496.25
2018-02-23T09:53:43.518Z,1496.25
2018-02-23T09:54:43.500Z,1496.25
2018-02-23T09:55:43.450Z,1496.25
2018-02-23T09:56:43.422Z,1535.63
2018-02-23T09:57:43.374Z,1552.50
2018-02-23T09:58:43.338Z,1575.00
2018-02-23T09:59:43.339Z,1642.50
2018-02-23T10:00:43.251Z,1710.00
2018-02-23T10:01:43.219Z,1783.13
2018-02-23T10:02:43.192Z,1794.38
2018-02-23T10:03:43.150Z,1816.88
2018-02-23T10:04:43.129Z,1912.50
2018-02-23T10:05:43.070Z,2008.13
2018-02-23T10:06:43.037Z,2041.88
2018-02-23T10:07:43.006Z,1991.25
2018-02-23T10:08:42.960Z,1895.63
2018-02-23T10:09:42.942Z,1777.50
2018-02-23T10:10:42.885Z,1648.13
2018-02-23T10:11:42.853Z,1552.50
2018-02-23T10:12:42.812Z,1462.50
2018-02-23T10:13:42.775Z,1411.88
2018-02-23T10:14:42.770Z,1355.63
2018-02-23T10:15:42.693Z,1338.75
2018-02-23T10:16:42.660Z,1299.38
2018-02-23T10:17:42.624Z,1260.00
2018-02-23T10:18:42.590Z,1243.13
2018-02-23T10:19:42.551Z,1215.00
2018-02-23T10:20:42.669Z,1186.88
2018-02-23T10:21:42.472Z,1186.88
2018-02-23T10:22:42.437Z,1198.13
2018-02-23T10:23:42.392Z,1226.25
2018-02-23T10:24:42.415Z,1243.13
2018-02-23T10:25:42.346Z,1276.88
2018-02-23T10:26:42.290Z,1608.75
2018-02-23T10:27:42.244Z,2092.50
2018-02-23T10:28:42.203Z,2311.88
2018-02-23T10:29:42.175Z,2131.88
2018-02-23T10:30:42.170Z,2086.88
2018-02-23T10:31:42.105Z,2115.00
2018-02-23T10:32:42.080Z,2182.50
2018-02-23T10:33:42.035Z,2154.38
2018-02-23T10:34:41.989Z,2092.50
2018-02-23T10:35:41.982Z,2165.63
2018-02-23T10:36:41.923Z,2115.00
2018-02-23T10:37:41.883Z,2137.50
2018-02-23T10:38:41.846Z,2227.50
2018-02-23T10:39:41.808Z,2368.13
2018-02-23T10:40:41.779Z,2340.00
2018-02-23T10:41:41.759Z,2362.50
2018-02-23T10:42:41.698Z,2328.75
2018-02-23T10:43:41.667Z,2379.38
2018-02-23T10:44:41.638Z,2458.13
2018-02-23T10:45:41.599Z,2407.50
2018-02-23T10:46:41.587Z,2424.38
2018-02-23T10:47:41.514Z,2503.13
2018-02-23T10:48:41.476Z,2480.63
2018-02-23T10:49:41.441Z,2486.25
2018-02-23T10:50:41.417Z,2542.50
2018-02-23T10:51:41.397Z,2548.13
2018-02-23T10:52:41.346Z,2559.38
2018-02-23T10:53:41.296Z,2632.50
2018-02-23T10:54:41.268Z,2649.38
2018-02-23T10:55:41.228Z,2565.00
2018-02-23T10:56:41.216Z,2570.63
2018-02-23T10:57:41.167Z,2598.75
2018-02-23T10:58:41.135Z,2643.75
2018-02-23T10:59:41.086Z,2593.13
2018-02-23T11:00:41.053Z,2334.38
2018-02-23T11:01:41.039Z,2334.38
2018-02-23T11:02:40.971Z,2565.00
2018-02-23T11:03:40.935Z,2581.88
2018-02-23T11:04:40.900Z,2576.25
2018-02-23T11:05:40.873Z,2587.50
2018-02-23T11:06:40.829Z,2531.25
2018-02-23T11:07:40.826Z,2480.63
2018-02-23T11:08:40.757Z,2508.75
2018-02-23T11:09:40.726Z,2491.88
2018-02-23T11:10:40.688Z,2525.63
2018-02-23T11:11:40.659Z,2536.88
2018-02-23T11:12:40.644Z,2536.88
2018-02-23T11:13:40.589Z,2559.38
2018-02-23T11:14:40.551Z,2565.00
2018-02-23T11:15:40.518Z,2559.38
2018-02-23T11:16:40.478Z,2536.88
2018-02-23T11:17:40.457Z,2548.13
2018-02-23T11:18:40.400Z,2531.25
2018-02-23T11:19:40.361Z,2520.00
2018-02-23T11:20:40.327Z,2525.63
2018-02-23T11:21:40.290Z,2514.38
2018-02-23T11:22:40.277Z,2520.00
2018-02-23T11:23:40.225Z,2486.25
2018-02-23T11:24:40.190Z,2424.38
2018-02-23T11:25:40.153Z,2441.25
2018-02-23T11:26:40.116Z,2385.00
2018-02-23T11:27:40.105Z,2390.63
2018-02-23T11:28:40.035Z,2385.00
2018-02-23T11:29:40.009Z,2401.88
2018-02-23T11:30:39.970Z,2390.63
2018-02-23T11:31:39.930Z,2362.50
2018-02-23T11:32:39.902Z,2396.25
2018-02-23T11:33:39.889Z,2441.25
2018-02-23T11:34:39.826Z,2385.00
2018-02-23T11:35:39.787Z,2323.13
2018-02-23T11:36:39.758Z,2323.13
2018-02-23T11:37:39.715Z,2368.13
2018-02-23T11:38:39.722Z,2385.00
2018-02-23T11:39:39.643Z,2396.25
2018-02-23T11:40:39.616Z,2396.25
2018-02-23T11:41:39.575Z,2407.50
2018-02-23T11:42:39.543Z,2385.00
2018-02-23T11:43:39.522Z,2401.88
2018-02-23T11:44:39.469Z,2340.00
2018-02-23T11:45:39.437Z,2351.25
2018-02-23T11:46:39.398Z,2373.75
2018-02-23T11:47:39.365Z,2328.75
2018-02-23T11:48:39.348Z,2323.13
2018-02-23T11:49:39.282Z,2323.13
2018-02-23T11:50:39.253Z,2323.13
2018-02-23T11:51:39.225Z,2328.75
2018-02-23T11:52:39.180Z,2356.88
2018-02-23T11:53:39.175Z,2323.13
2018-02-23T11:54:39.109Z,2250.00
2018-02-23T11:55:39.130Z,2199.38
2018-02-23T11:56:39.031Z,2160.00
2018-02-23T11:57:38.989Z,2137.50
2018-02-23T11:58:38.958Z,2120.63
2018-02-23T11:59:38.950Z,2092.50
2018-02-23T12:00:38.891Z,2176.88
2018-02-23T12:01:38.853Z,2205.00
2018-02-23T12:02:38.818Z,2261.25
2018-02-23T12:03:38.771Z,2272.50
2018-02-23T12:04:38.765Z,2283.75
2018-02-23T12:05:38.708Z,2283.75
2018-02-23T12:06:38.666Z,2261.25
2018-02-23T12:07:38.628Z,2266.88
2018-02-23T12:08:38.599Z,2261.25
2018-02-23T12:09:38.591Z,2261.25
2018-02-23T12:10:38.519Z,2255.63
2018-02-23T12:11:38.489Z,2216.25
2018-02-23T12:12:38.443Z,2227.50
2018-02-23T12:13:38.417Z,2221.88
2018-02-23T12:14:38.403Z,2227.50
2018-02-23T12:15:38.349Z,2227.50
2018-02-23T12:16:38.306Z,2216.25
2018-02-23T12:17:38.276Z,2210.63
2018-02-23T12:18:38.229Z,2216.25
2018-02-23T12:19:38.197Z,2199.38
2018-02-23T12:20:38.185Z,2205.00
2018-02-23T12:21:38.120Z,2193.75
2018-02-23T12:22:38.082Z,2188.13
2018-02-23T12:23:38.042Z,2171.25
2018-02-23T12:24:38.005Z,2148.75
2018-02-23T12:25:37.993Z,2165.63
2018-02-23T12:26:37.933Z,2165.63
2018-02-23T12:27:37.904Z,2182.50
2018-02-23T12:28:37.862Z,2160.00
2018-02-23T12:29:37.829Z,2188.13
2018-02-23T12:30:37.821Z,2182.50
2018-02-23T12:31:37.761Z,2143.13
2018-02-23T12:32:37.716Z,2098.13
2018-02-23T12:33:37.686Z,2081.25
2018-02-23T12:34:37.642Z,2126.25
2018-02-23T12:35:37.631Z,2126.25
2018-02-23T12:36:37.576Z,2131.88
2018-02-23T12:37:37.547Z,2115.00
2018-02-23T12:38:37.501Z,2086.88
2018-02-23T12:39:37.458Z,2081.25
2018-02-23T12:40:37.446Z,2047.50
2018-02-23T12:41:37.382Z,2041.88
2018-02-23T12:42:37.355Z,2041.88
2018-02-23T12:43:37.309Z,2041.88
2018-02-23T12:44:37.281Z,2019.38